Time;durP1;ratioP1;P1;durP2;ratioP2;P2;SDS_P1;SDS_P2;PMS_P1;PMS_P2;Temp;Humidity;BMP_temperature;BMP_pressure;BME280_temperature;BME280_humidity;BME280_pressure;Samples;Min_cycle;Max_cycle;Signal;HPM_P1;HPM_P2
2022/07/01 00:36:21;;;;;;;4.00;3.60;;;;;;;;;;5067648;28;20538;-70
2022/07/01 00:38:47;;;;;;;5.10;3.55;;;;;;;;;;5071470;28;20044;-72
2022/07/01 00:41:14;;;;;;;3.75;3.33;;;;;;;;;;5071691;28;20040;-70
2022/07/01 00:43:40;;;;;;;4.85;3.42;;;;;;;;;;5071380;28;20060;-70
2022/07/01 00:46:06;;;;;;;3.72;3.33;;;;;;;;;;5071633;28;20519;-72
2022/07/01 00:48:33;;;;;;;4.45;3.60;;;;;;;;;;5069887;28;20056;-71
2022/07/01 00:50:59;;;;;;;6.03;3.30;;;;;;;;;;5071495;28;20067;-70
2022/07/01 00:53:25;;;;;;;7.50;3.67;;;;;;;;;;5053134;28;20411;-70
2022/07/01 00:55:50;;;;;;;7.70;3.70;;;;;;;;;;5071166;28;20040;-70
2022/07/01 00:58:16;;;;;;;3.50;3.20;;;;;;;;;;5070770;28;20456;-70
2022/07/01 01:00:43;;;;;;;4.45;3.45;;;;;;;;;;5071163;28;20513;-71
2022/07/01 01:03:11;;;;;;;5.55;2.90;;;;;;;;;;5070961;28;20085;-69
2022/07/01 01:05:37;;;;;;;5.57;3.35;;;;;;;;;;5070974;28;20040;-70
2022/07/01 01:08:04;;;;;;;5.88;3.50;;;;;;;;;;5071290;28;20568;-71
2022/07/01 01:10:30;;;;;;;7.28;3.70;;;;;;;;;;5070660;28;20040;-70
2022/07/01 01:12:56;;;;;;;5.95;3.42;;;;;;;;;;5071401;28;20576;-69
2022/07/01 01:15:22;;;;;;;3.70;3.40;;;;;;;;;;5070859;28;20269;-70
2022/07/01 01:17:48;;;;;;;4.75;3.05;;;;;;;;;;5070787;28;20102;-70
2022/07/01 01:20:15;;;;;;;8.40;3.08;;;;;;;;;;5070841;28;20040;-69
2022/07/01 01:22:42;;;;;;;3.80;3.20;;;;;;;;;;5071047;28;20044;-70
2022/07/01 01:25:08;;;;;;;6.53;3.25;;;;;;;;;;5071070;28;20044;-70
2022/07/01 01:27:34;;;;;;;3.30;3.08;;;;;;;;;;5069340;28;20516;-69
2022/07/01 01:29:59;;;;;;;9.45;3.13;;;;;;;;;;5070715;28;20032;-70
2022/07/01 01:32:25;;;;;;;3.05;2.85;;;;;;;;;;5052955;28;20482;-71
2022/07/01 01:34:51;;;;;;;4.18;3.28;;;;;;;;;;5070098;28;20044;-71
2022/07/01 01:37:17;;;;;;;3.50;3.20;;;;;;;;;;5070631;28;20036;-70
2022/07/01 01:39:43;;;;;;;3.38;3.08;;;;;;;;;;5070229;28;20044;-71
2022/07/01 01:42:09;;;;;;;3.83;3.20;;;;;;;;;;5070636;28;20037;-69
2022/07/01 01:44:35;;;;;;;4.03;3.50;;;;;;;;;;5070243;28;20040;-71
2022/07/01 01:47:01;;;;;;;3.35;3.15;;;;;;;;;;5070368;28;20048;-70
2022/07/01 01:49:27;;;;;;;3.45;3.15;;;;;;;;;;5070340;28;20047;-70
2022/07/01 01:51:54;;;;;;;3.33;2.92;;;;;;;;;;5068972;28;20056;-70
2022/07/01 01:54:20;;;;;;;3.90;3.10;;;;;;;;;;5070521;28;20075;-70
2022/07/01 01:56:46;;;;;;;3.30;2.80;;;;;;;;;;5052562;28;20080;-71
2022/07/01 01:59:12;;;;;;;7.45;3.20;;;;;;;;;;5070135;28;20037;-71
2022/07/01 02:01:38;;;;;;;8.52;4.25;;;;;;;;;;5070033;28;20063;-70
2022/07/01 02:04:04;;;;;;;4.40;3.50;;;;;;;;;;5070058;28;20033;-72
2022/07/01 02:06:30;;;;;;;5.05;3.17;;;;;;;;;;5070083;28;20045;-69
2022/07/01 02:08:57;;;;;;;5.30;3.10;;;;;;;;;;5069183;28;20048;-71
2022/07/01 02:11:22;;;;;;;6.20;3.17;;;;;;;;;;5069973;28;20044;-71
2022/07/01 02:13:48;;;;;;;4.55;2.92;;;;;;;;;;5069761;28;20040;-71
2022/07/01 02:16:14;;;;;;;4.25;2.97;;;;;;;;;;5069869;28;20060;-70
2022/07/01 02:18:40;;;;;;;5.30;3.45;;;;;;;;;;5068414;28;20040;-70
2022/07/01 02:21:06;;;;;;;5.05;3.45;;;;;;;;;;5069928;28;20063;-69
2022/07/01 02:23:33;;;;;;;6.65;3.65;;;;;;;;;;5069874;28;20242;-71
2022/07/01 02:25:59;;;;;;;3.53;3.33;;;;;;;;;;5068619;28;20052;-71
2022/07/01 02:28:24;;;;;;;7.10;3.13;;;;;;;;;;5069689;28;20518;-71
2022/07/01 02:30:50;;;;;;;3.40;3.13;;;;;;;;;;5069311;28;20068;-70
2022/07/01 02:33:17;;;;;;;5.88;3.20;;;;;;;;;;5051883;28;20051;-70
2022/07/01 02:35:43;;;;;;;3.15;2.85;;;;;;;;;;5069233;28;20056;-71
2022/07/01 02:38:09;;;;;;;8.25;3.20;;;;;;;;;;5069706;28;20122;-70
2022/07/01 02:40:37;;;;;;;3.10;2.85;;;;;;;;;;5069445;28;20464;-69
2022/07/01 02:43:04;;;;;;;6.20;3.28;;;;;;;;;;5069762;28;20075;-70
2022/07/01 02:45:30;;;;;;;8.98;3.25;;;;;;;;;;5069436;28;20044;-71
2022/07/01 02:47:55;;;;;;;3.92;2.95;;;;;;;;;;5069379;28;20052;-70
2022/07/01 02:50:21;;;;;;;8.13;3.67;;;;;;;;;;5051645;28;20411;-72
2022/07/01 02:52:47;;;;;;;3.97;3.15;;;;;;;;;;5068222;28;20044;-70
2022/07/01 02:55:13;;;;;;;3.35;3.00;;;;;;;;;;5069259;28;20040;-69
2022/07/01 02:57:40;;;;;;;3.10;2.90;;;;;;;;;;5069212;28;20049;-71
2022/07/01 03:00:06;;;;;;;4.70;3.20;;;;;;;;;;5069348;28;20119;-71
2022/07/01 03:02:32;;;;;;;5.45;3.25;;;;;;;;;;5068168;28;20052;-70
2022/07/01 03:04:58;;;;;;;6.65;2.80;;;;;;;;;;5069076;28;20033;-71
2022/07/01 03:07:24;;;;;;;6.28;2.80;;;;;;;;;;5069246;28;20553;-70
2022/07/01 03:09:50;;;;;;;9.55;2.70;;;;;;;;;;5068975;28;20091;-70
2022/07/01 03:12:25;;;;;;;4.13;2.80;;;;;;;;;;5069363;28;20040;-70
2022/07/01 03:14:54;;;;;;;4.50;2.83;;;;;;;;;;5067973;28;20048;-71
2022/07/01 03:17:20;;;;;;;5.50;2.70;;;;;;;;;;5069403;28;20466;-71
2022/07/01 03:19:46;;;;;;;3.10;2.75;;;;;;;;;;5069116;28;20097;-71
2022/07/01 03:22:12;;;;;;;4.00;2.47;;;;;;;;;;5073061;28;20519;-70
2022/07/01 03:24:38;;;;;;;4.05;2.25;;;;;;;;;;5072971;28;20058;-70
2022/07/01 03:27:04;;;;;;;5.75;2.78;;;;;;;;;;5055289;28;20056;-70
2022/07/01 03:29:30;;;;;;;5.57;2.72;;;;;;;;;;5054697;28;20415;-71
2022/07/01 03:31:56;;;;;;;4.32;2.60;;;;;;;;;;5072733;28;20206;-71
2022/07/01 03:34:22;;;;;;;8.07;2.30;;;;;;;;;;5072475;28;20092;-71
2022/07/01 03:36:48;;;;;;;4.72;2.40;;;;;;;;;;5072633;28;20044;-71
2022/07/01 03:39:14;;;;;;;4.68;2.47;;;;;;;;;;5072723;28;20047;-69
2022/07/01 03:41:41;;;;;;;3.80;2.63;;;;;;;;;;5054809;28;20040;-71
2022/07/01 03:44:07;;;;;;;2.65;2.45;;;;;;;;;;5072914;28;20063;-70
2022/07/01 03:46:35;;;;;;;5.38;2.60;;;;;;;;;;5054595;28;20040;-70
2022/07/01 03:49:01;;;;;;;5.90;2.25;;;;;;;;;;5071917;28;20101;-72
2022/07/01 03:51:27;;;;;;;2.30;2.10;;;;;;;;;;5072426;28;20036;-70
2022/07/01 03:56:38;;;;;;;6.57;2.25;;;;;;;;;;5054507;28;20085;-72
2022/07/01 03:59:04;;;;;;;8.43;2.72;;;;;;;;;;5072402;28;20045;-69
2022/07/01 04:01:31;;;;;;;4.22;2.17;;;;;;;;;;5072176;28;20048;-70
2022/07/01 04:03:57;;;;;;;4.78;2.35;;;;;;;;;;5071981;28;20216;-71
2022/07/01 04:06:23;;;;;;;4.63;1.92;;;;;;;;;;5072192;28;20189;-70
2022/07/01 04:08:49;;;;;;;8.15;2.17;;;;;;;;;;5070786;28;20147;-71
2022/07/01 04:11:15;;;;;;;2.35;2.10;;;;;;;;;;5072050;28;20047;-70
2022/07/01 04:13:41;;;;;;;3.22;1.98;;;;;;;;;;5072034;28;20186;-71
2022/07/01 04:16:07;;;;;;;2.83;1.92;;;;;;;;;;5072154;28;20411;-71
2022/07/01 04:18:33;;;;;;;3.22;1.80;;;;;;;;;;5072025;28;20206;-70
2022/07/01 04:23:44;;;;;;;2.55;2.17;;;;;;;;;;5071917;28;20094;-71
2022/07/01 04:26:10;;;;;;;1.70;1.60;;;;;;;;;;5072055;28;20046;-71
2022/07/01 04:28:36;;;;;;;2.10;1.67;;;;;;;;;;5054076;28;20131;-71
2022/07/01 04:31:02;;;;;;;3.83;1.75;;;;;;;;;;5071687;28;20044;-71
2022/07/01 04:33:28;;;;;;;3.08;1.40;;;;;;;;;;5071375;28;20143;-71
2022/07/01 04:35:54;;;;;;;5.80;1.67;;;;;;;;;;5037963;28;20080;-72
2022/07/01 04:38:20;;;;;;;2.85;1.73;;;;;;;;;;5052620;28;20222;-71
2022/07/01 04:43:31;;;;;;;1.98;1.88;;;;;;;;;;5052199;28;20119;-71
2022/07/01 04:45:57;;;;;;;2.10;1.40;;;;;;;;;;5033600;28;20033;-72
2022/07/01 04:48:22;;;;;;;3.25;1.50;;;;;;;;;;5051443;28;20053;-71
2022/07/01 04:50:48;;;;;;;3.70;1.35;;;;;;;;;;5033385;28;20037;-72
2022/07/01 04:53:15;;;;;;;4.93;1.70;;;;;;;;;;5051480;28;20047;-72
2022/07/01 04:55:40;;;;;;;2.30;1.70;;;;;;;;;;5033322;28;20136;-72
2022/07/01 04:58:06;;;;;;;3.08;1.45;;;;;;;;;;5051567;28;20503;-71
2022/07/01 05:00:32;;;;;;;1.70;1.40;;;;;;;;;;5051302;28;20041;-72
2022/07/01 05:02:58;;;;;;;4.93;1.52;;;;;;;;;;5051066;28;20044;-72
2022/07/01 05:05:24;;;;;;;5.63;1.58;;;;;;;;;;5051255;28;20335;-72
2022/07/01 05:07:50;;;;;;;4.80;1.40;;;;;;;;;;5033258;28;20060;-72
2022/07/01 05:10:16;;;;;;;1.85;1.75;;;;;;;;;;5033176;28;20041;-72
2022/07/01 05:12:43;;;;;;;2.03;1.77;;;;;;;;;;5051161;28;20045;-73
2022/07/01 05:15:09;;;;;;;2.60;1.98;;;;;;;;;;5033308;28;20079;-72
2022/07/01 05:23:04;;;;;;;6.53;1.70;;;;;;;;;;5050774;28;20077;-72
2022/07/01 05:25:30;;;;;;;5.47;1.67;;;;;;;;;;5032777;28;20102;-71
2022/07/01 05:27:56;;;;;;;2.78;1.90;;;;;;;;;;5050608;28;20113;-72
2022/07/01 05:30:22;;;;;;;2.65;1.50;;;;;;;;;;5050590;28;20045;-71
2022/07/01 05:32:48;;;;;;;2.40;1.77;;;;;;;;;;5050884;28;20047;-69
2022/07/01 05:35:14;;;;;;;1.70;1.60;;;;;;;;;;5059124;28;20055;-71
2022/07/01 05:37:41;;;;;;;5.50;1.85;;;;;;;;;;5070599;28;20115;-72
2022/07/01 05:40:07;;;;;;;3.17;1.60;;;;;;;;;;5069054;28;20080;-71
2022/07/01 05:42:34;;;;;;;1.80;1.70;;;;;;;;;;5070293;28;20600;-71
2022/07/01 05:45:00;;;;;;;2.05;1.77;;;;;;;;;;5069270;28;20483;-72
2022/07/01 05:47:25;;;;;;;3.03;1.67;;;;;;;;;;5070279;28;20041;-72
2022/07/01 05:49:51;;;;;;;1.60;1.50;;;;;;;;;;5070073;28;20072;-71
2022/07/01 05:52:18;;;;;;;4.03;1.98;;;;;;;;;;5070594;28;20295;-71
2022/07/01 05:54:44;;;;;;;4.75;1.85;;;;;;;;;;5052404;28;20306;-71
2022/07/01 05:57:10;;;;;;;3.72;1.60;;;;;;;;;;5070257;28;20041;-71
2022/07/01 05:59:36;;;;;;;5.35;1.80;;;;;;;;;;5070002;28;20037;-71
2022/07/01 06:02:03;;;;;;;2.00;1.45;;;;;;;;;;5069956;28;20045;-71
2022/07/01 06:04:29;;;;;;;2.05;1.23;;;;;;;;;;5069976;28;20111;-71
2022/07/01 06:06:55;;;;;;;1.70;1.60;;;;;;;;;;5069835;28;20048;-71
2022/07/01 06:09:21;;;;;;;2.05;1.75;;;;;;;;;;5069682;28;20056;-72
2022/07/01 06:11:47;;;;;;;5.22;1.85;;;;;;;;;;5069931;28;20040;-71
2022/07/01 06:14:13;;;;;;;2.50;1.15;;;;;;;;;;5069953;28;20071;-72
2022/07/01 06:16:39;;;;;;;1.80;1.70;;;;;;;;;;5069886;28;20055;-72
2022/07/01 06:19:06;;;;;;;4.63;1.60;;;;;;;;;;5051828;28;20478;-72
2022/07/01 06:21:32;;;;;;;3.95;1.70;;;;;;;;;;5051788;28;20423;-71
2022/07/01 06:23:58;;;;;;;2.92;1.55;;;;;;;;;;5068383;28;20098;-71
2022/07/01 06:26:24;;;;;;;6.50;2.10;;;;;;;;;;5069646;28;20431;-71
2022/07/01 06:28:50;;;;;;;5.28;1.60;;;;;;;;;;5068091;28;20601;-71
2022/07/01 06:31:16;;;;;;;1.65;1.55;;;;;;;;;;5069542;28;20045;-71
2022/07/01 06:33:42;;;;;;;2.28;1.52;;;;;;;;;;5069855;28;20044;-71
2022/07/01 06:36:09;;;;;;;3.53;1.50;;;;;;;;;;5069321;28;20547;-72
2022/07/01 06:38:35;;;;;;;2.65;1.58;;;;;;;;;;5069556;28;20055;-72
2022/07/01 06:43:45;;;;;;;1.63;1.52;;;;;;;;;;5069776;28;20045;-72
2022/07/01 06:46:11;;;;;;;1.23;1.23;;;;;;;;;;5069327;28;20036;-72
2022/07/01 06:48:37;;;;;;;3.10;1.52;;;;;;;;;;5069409;28;20056;-71
2022/07/01 06:51:03;;;;;;;1.98;1.30;;;;;;;;;;5069339;28;20035;-70
2022/07/01 06:53:29;;;;;;;3.15;1.80;;;;;;;;;;5069526;28;20074;-71
2022/07/01 06:55:55;;;;;;;32.03;16.42;;;;;;;;;;5070958;28;20075;-70
2022/07/01 06:58:20;;;;;;;31.77;16.17;;;;;;;;;;5073615;28;20048;-72
2022/07/01 07:00:46;;;;;;;5.15;2.53;;;;;;;;;;5074185;28;20033;-72
2022/07/01 07:03:12;;;;;;;2.70;1.45;;;;;;;;;;5073416;28;20109;-71
2022/07/01 07:05:38;;;;;;;2.97;1.30;;;;;;;;;;5055626;28;20036;-71
2022/07/01 07:08:04;;;;;;;5.82;1.30;;;;;;;;;;5073470;28;20052;-71
2022/07/01 07:10:30;;;;;;;1.55;1.13;;;;;;;;;;5073751;28;20457;-70
2022/07/01 07:12:56;;;;;;;5.63;1.85;;;;;;;;;;5073444;28;20450;-72
2022/07/01 07:15:22;;;;;;;1.40;1.30;;;;;;;;;;5073453;28;20036;-72
2022/07/01 07:17:48;;;;;;;2.08;1.45;;;;;;;;;;5073397;28;20102;-72
2022/07/01 07:20:14;;;;;;;2.72;1.30;;;;;;;;;;5073352;28;20072;-71
2022/07/01 07:22:40;;;;;;;1.40;1.30;;;;;;;;;;5072464;28;20048;-72
2022/07/01 07:25:06;;;;;;;2.88;1.30;;;;;;;;;;5072963;28;20439;-73
2022/07/01 07:27:32;;;;;;;1.58;1.25;;;;;;;;;;5071743;28;20052;-72
2022/07/01 07:29:58;;;;;;;4.28;1.48;;;;;;;;;;5054990;28;20045;-72
2022/07/01 07:32:24;;;;;;;1.60;1.50;;;;;;;;;;5072914;28;20465;-72
2022/07/01 07:34:50;;;;;;;4.72;1.50;;;;;;;;;;5054320;28;20060;-73
2022/07/01 07:37:16;;;;;;;5.18;1.60;;;;;;;;;;5072838;28;20137;-73
2022/07/01 07:39:42;;;;;;;4.35;1.83;;;;;;;;;;5072568;28;20242;-72
2022/07/01 07:42:08;;;;;;;2.42;1.30;;;;;;;;;;5072624;28;20044;-72
2022/07/01 07:44:34;;;;;;;5.22;1.50;;;;;;;;;;5072947;28;20044;-72
2022/07/01 07:47:00;;;;;;;1.40;1.30;;;;;;;;;;5072471;28;20090;-72
2022/07/01 07:49:26;;;;;;;1.10;1.10;;;;;;;;;;5072772;28;20064;-72
2022/07/01 07:51:52;;;;;;;1.58;1.48;;;;;;;;;;5072641;28;20233;-72
2022/07/01 07:54:18;;;;;;;1.52;1.40;;;;;;;;;;5073592;28;20059;-71
2022/07/01 07:56:44;;;;;;;2.88;1.40;;;;;;;;;;5072963;28;20117;-71
2022/07/01 07:59:10;;;;;;;6.82;1.40;;;;;;;;;;5072302;28;20423;-72
2022/07/01 08:01:36;;;;;;;3.75;1.38;;;;;;;;;;5072297;28;20049;-72
2022/07/01 08:04:02;;;;;;;2.15;1.50;;;;;;;;;;5072374;28;20153;-71
2022/07/01 08:06:28;;;;;;;3.50;1.38;;;;;;;;;;5071954;28;20585;-72
2022/07/01 08:08:55;;;;;;;1.75;1.63;;;;;;;;;;5071365;28;20511;-73
2022/07/01 08:11:21;;;;;;;2.88;2.00;;;;;;;;;;5072236;28;20044;-73
2022/07/01 08:13:47;;;;;;;7.78;1.50;;;;;;;;;;5050958;28;20040;-72
2022/07/01 08:16:13;;;;;;;4.25;1.40;;;;;;;;;;5041568;28;20048;-72
2022/07/01 08:18:39;;;;;;;2.30;1.38;;;;;;;;;;5055979;28;20443;-72
2022/07/01 08:21:05;;;;;;;2.85;1.80;;;;;;;;;;5052084;28;20049;-72
2022/07/01 08:23:31;;;;;;;1.70;1.20;;;;;;;;;;5052122;28;20053;-71
2022/07/01 08:25:57;;;;;;;2.30;1.60;;;;;;;;;;5051687;28;20117;-73
2022/07/01 08:28:24;;;;;;;6.15;2.10;;;;;;;;;;5033910;28;20061;-73
2022/07/01 08:30:50;;;;;;;4.28;1.40;;;;;;;;;;5055728;28;20087;-71
2022/07/01 08:33:16;;;;;;;1.55;1.45;;;;;;;;;;5071708;28;20087;-71
2022/07/01 08:35:43;;;;;;;7.15;1.75;;;;;;;;;;5071679;28;20060;-72
2022/07/01 08:38:09;;;;;;;4.85;1.20;;;;;;;;;;5053772;28;20040;-72
2022/07/01 08:40:36;;;;;;;10.40;1.90;;;;;;;;;;5068037;28;20331;-72
2022/07/01 08:43:03;;;;;;;4.22;1.75;;;;;;;;;;5062210;28;20139;-71
2022/07/01 08:45:29;;;;;;;5.70;1.15;;;;;;;;;;5047818;28;20032;-72
2022/07/01 08:47:57;;;;;;;1.90;1.40;;;;;;;;;;5037172;28;20143;-69
2022/07/01 08:50:30;;;;;;;4.03;1.35;;;;;;;;;;5071651;28;20040;-72
2022/07/01 08:52:56;;;;;;;5.25;1.45;;;;;;;;;;5071683;28;20246;-73
2022/07/01 08:55:22;;;;;;;4.93;1.50;;;;;;;;;;5066389;28;20473;-72
2022/07/01 08:57:48;;;;;;;1.77;1.60;;;;;;;;;;5071663;28;20044;-71
2022/07/01 09:00:14;;;;;;;7.97;1.42;;;;;;;;;;5066393;28;20037;-72
2022/07/01 09:03:00;;;;;;;2.97;1.55;;;;;;;;;;5061028;28;20037;-71
2022/07/01 09:05:26;;;;;;;2.60;1.15;;;;;;;;;;5070343;28;20032;-71
2022/07/01 09:08:02;;;;;;;5.82;1.40;;;;;;;;;;5070644;28;20053;-73
2022/07/01 09:10:31;;;;;;;6.22;1.60;;;;;;;;;;5070900;28;20123;-72
2022/07/01 09:12:59;;;;;;;15.05;1.65;;;;;;;;;;5070681;28;20044;-72
2022/07/01 09:15:29;;;;;;;3.80;1.73;;;;;;;;;;5036323;28;20041;-73
2022/07/01 09:17:56;;;;;;;1.35;1.30;;;;;;;;;;5053046;28;20071;-72
2022/07/01 09:20:32;;;;;;;6.95;1.40;;;;;;;;;;5053094;28;20059;-73
2022/07/01 09:23:01;;;;;;;2.90;1.65;;;;;;;;;;5036408;28;20045;-73
2022/07/01 09:25:28;;;;;;;3.72;1.42;;;;;;;;;;5052806;28;20048;-72
2022/07/01 09:28:04;;;;;;;3.25;1.27;;;;;;;;;;5070674;28;20049;-71
2022/07/01 09:30:30;;;;;;;7.97;1.60;;;;;;;;;;5070788;28;20047;-73
2022/07/01 09:33:06;;;;;;;2.30;1.38;;;;;;;;;;5070818;28;20131;-71
2022/07/01 09:35:32;;;;;;;1.40;1.30;;;;;;;;;;5070378;28;20053;-72
2022/07/01 09:37:58;;;;;;;2.95;1.35;;;;;;;;;;5052576;28;20041;-73
2022/07/01 09:40:24;;;;;;;6.28;1.75;;;;;;;;;;5070318;28;20143;-72
2022/07/01 09:42:50;;;;;;;4.38;1.40;;;;;;;;;;5070609;28;20515;-72
2022/07/01 09:45:16;;;;;;;5.13;1.33;;;;;;;;;;5070159;28;20032;-72
2022/07/01 09:47:45;;;;;;;2.13;1.38;;;;;;;;;;5052464;28;20048;-73
2022/07/01 09:50:12;;;;;;;4.53;1.40;;;;;;;;;;5070163;28;20032;-71
2022/07/01 09:52:38;;;;;;;3.10;1.42;;;;;;;;;;5052623;28;20048;-72
2022/07/01 09:55:05;;;;;;;1.48;1.38;;;;;;;;;;5070078;28;20036;-72
2022/07/01 09:57:31;;;;;;;0.90;0.90;;;;;;;;;;5070498;28;20048;-72
2022/07/01 09:59:58;;;;;;;1.75;1.60;;;;;;;;;;5070315;28;20036;-73
2022/07/01 10:02:24;;;;;;;4.40;1.40;;;;;;;;;;5069990;28;20558;-73
2022/07/01 10:05:10;;;;;;;3.17;1.98;;;;;;;;;;5052459;28;20119;-72
2022/07/01 10:07:39;;;;;;;1.25;1.25;;;;;;;;;;5069586;28;20044;-71
2022/07/01 10:10:17;;;;;;;3.22;1.42;;;;;;;;;;5052038;28;20032;-73
2022/07/01 10:12:55;;;;;;;6.78;1.50;;;;;;;;;;5052242;28;20044;-72
2022/07/01 10:15:21;;;;;;;1.60;1.50;;;;;;;;;;5069764;28;20131;-71
2022/07/01 10:17:48;;;;;;;3.28;1.70;;;;;;;;;;5052407;28;20041;-72
2022/07/01 10:20:15;;;;;;;2.20;1.50;;;;;;;;;;5051987;28;20046;-72
2022/07/01 10:22:41;;;;;;;6.18;1.70;;;;;;;;;;5070726;28;20130;-71
2022/07/01 10:25:26;;;;;;;3.78;1.80;;;;;;;;;;5052062;28;20052;-72
2022/07/01 10:28:12;;;;;;;1.77;1.67;;;;;;;;;;5069635;28;20080;-72
2022/07/01 10:30:48;;;;;;;1.75;1.55;;;;;;;;;;5069119;28;20037;-72
2022/07/01 10:33:34;;;;;;;5.45;1.92;;;;;;;;;;5069703;28;20097;-72
2022/07/01 10:36:07;;;;;;;1.83;1.70;;;;;;;;;;5055541;28;20076;-71
2022/07/01 10:38:33;;;;;;;4.45;1.40;;;;;;;;;;5069659;28;20576;-72
2022/07/01 10:41:09;;;;;;;4.13;1.90;;;;;;;;;;5051809;28;20033;-71
2022/07/01 10:43:35;;;;;;;5.38;1.88;;;;;;;;;;5069644;28;20102;-70
2022/07/01 10:46:02;;;;;;;1.95;1.85;;;;;;;;;;5069134;28;20040;-72
2022/07/01 10:48:30;;;;;;;4.85;2.22;;;;;;;;;;5069474;28;20052;-71
2022/07/01 10:50:56;;;;;;;4.97;1.70;;;;;;;;;;5069780;28;20047;-74
2022/07/01 10:53:22;;;;;;;1.70;1.60;;;;;;;;;;5069399;28;20123;-72
2022/07/01 10:55:48;;;;;;;4.05;1.88;;;;;;;;;;5070118;28;20032;-72
2022/07/01 10:58:17;;;;;;;1.60;1.50;;;;;;;;;;5051997;28;20041;-71
2022/07/01 11:00:43;;;;;;;1.33;1.30;;;;;;;;;;5070991;28;20127;-71
2022/07/01 11:03:10;;;;;;;5.07;1.70;;;;;;;;;;5052588;28;20067;-72
2022/07/01 11:05:37;;;;;;;4.82;1.60;;;;;;;;;;5051580;28;20083;-71
2022/07/01 11:08:06;;;;;;;5.47;1.77;;;;;;;;;;5069066;28;20059;-72
2022/07/01 11:10:32;;;;;;;1.90;1.80;;;;;;;;;;5034745;28;20036;-71
2022/07/01 11:12:59;;;;;;;2.40;2.20;;;;;;;;;;5069270;28;20048;-72
2022/07/01 11:15:26;;;;;;;2.00;1.80;;;;;;;;;;5051006;28;20043;-72
2022/07/01 11:17:52;;;;;;;10.35;1.70;;;;;;;;;;5069313;28;20123;-72
2022/07/01 11:20:18;;;;;;;3.30;1.92;;;;;;;;;;5051113;28;20132;-74
2022/07/01 11:22:43;;;;;;;2.22;2.03;;;;;;;;;;5051344;28;20059;-73
2022/07/01 11:25:10;;;;;;;4.72;1.95;;;;;;;;;;5069087;28;20036;-71
2022/07/01 11:27:36;;;;;;;2.80;1.90;;;;;;;;;;5068943;28;20553;-71
2022/07/01 11:30:08;;;;;;;2.33;1.77;;;;;;;;;;5069110;28;20514;-72
2022/07/01 11:32:34;;;;;;;7.47;1.90;;;;;;;;;;5051532;28;20098;-72
2022/07/01 11:35:01;;;;;;;4.93;1.67;;;;;;;;;;5043158;28;20053;-71
2022/07/01 11:40:15;;;;;;;3.97;1.83;;;;;;;;;;5030807;28;20052;-72
2022/07/01 11:42:41;;;;;;;3.22;1.70;;;;;;;;;;5051315;28;20479;-71
2022/07/01 11:45:07;;;;;;;2.50;1.65;;;;;;;;;;5034749;28;20516;-72
2022/07/01 11:47:33;;;;;;;5.15;1.80;;;;;;;;;;5034418;28;20052;-72
2022/07/01 11:49:59;;;;;;;1.80;1.70;;;;;;;;;;5035010;28;20045;-71
2022/07/01 11:52:25;;;;;;;4.90;2.15;;;;;;;;;;5034314;28;20120;-71
2022/07/01 11:54:52;;;;;;;3.95;1.98;;;;;;;;;;5052545;28;20131;-71
2022/07/01 11:57:22;;;;;;;6.82;1.98;;;;;;;;;;5017924;28;20053;-71
2022/07/01 11:59:48;;;;;;;;;;;;;;;;;;5052982;28;20045;-71
2022/07/01 12:02:15;;;;;;;2.00;1.90;;;;;;;;;;5052256;28;20315;-73
2022/07/01 12:04:41;;;;;;;4.10;2.00;;;;;;;;;;5053284;28;20044;-73
2022/07/01 12:07:07;;;;;;;4.15;2.20;;;;;;;;;;5052048;28;20377;-71
2022/07/01 12:09:33;;;;;;;2.83;1.95;;;;;;;;;;5052165;28;20060;-72
2022/07/01 12:11:59;;;;;;;2.55;1.88;;;;;;;;;;5052137;28;20056;-73
2022/07/01 12:14:26;;;;;;;10.25;2.30;;;;;;;;;;5017614;28;20041;-72
2022/07/01 12:16:53;;;;;;;9.18;2.20;;;;;;;;;;5051969;28;20043;-71
2022/07/01 12:19:21;;;;;;;1.90;1.80;;;;;;;;;;5051871;28;20573;-72
2022/07/01 12:21:53;;;;;;;2.13;1.83;;;;;;;;;;5051976;28;20041;-71
2022/07/01 12:24:21;;;;;;;4.22;1.80;;;;;;;;;;5034119;28;20048;-72
2022/07/01 12:26:53;;;;;;;5.30;2.10;;;;;;;;;;5033842;28;20045;-71
2022/07/01 12:29:20;;;;;;;3.30;2.22;;;;;;;;;;5033710;28;20056;-71
2022/07/01 12:31:59;;;;;;;3.03;2.13;;;;;;;;;;5051654;28;20044;-72
2022/07/01 12:34:48;;;;;;;5.68;2.20;;;;;;;;;;5047645;28;20515;-71
2022/07/01 12:37:18;;;;;;;4.40;2.05;;;;;;;;;;5023413;28;20060;-71
2022/07/01 12:39:51;;;;;;;5.75;2.20;;;;;;;;;;5031809;28;20061;-71
2022/07/01 12:42:20;;;;;;;2.40;2.05;;;;;;;;;;5031354;28;20053;-71
2022/07/01 12:44:46;;;;;;;2.38;2.20;;;;;;;;;;5032285;28;20454;-73
2022/07/01 12:47:16;;;;;;;2.65;2.00;;;;;;;;;;5031853;28;20137;-72
2022/07/01 12:49:42;;;;;;;6.72;2.00;;;;;;;;;;5031621;28;20115;-72
2022/07/01 12:52:26;;;;;;;2.42;2.20;;;;;;;;;;5031436;28;20136;-72
2022/07/01 12:54:52;;;;;;;2.70;1.85;;;;;;;;;;5013156;28;20283;-73
2022/07/01 12:57:28;;;;;;;2.25;1.58;;;;;;;;;;5031184;28;20204;-73
2022/07/01 12:59:54;;;;;;;3.42;1.52;;;;;;;;;;5031876;28;20045;-72
2022/07/01 13:02:20;;;;;;;3.40;2.20;;;;;;;;;;5013463;28;20042;-72
2022/07/01 13:04:46;;;;;;;1.90;1.80;;;;;;;;;;4997184;28;20038;-73
2022/07/01 13:07:12;;;;;;;2.33;1.60;;;;;;;;;;5030909;28;20516;-73
2022/07/01 13:09:38;;;;;;;5.90;1.90;;;;;;;;;;5031071;28;20416;-73
2022/07/01 13:12:04;;;;;;;3.55;2.42;;;;;;;;;;5031113;28;20045;-72
2022/07/01 13:14:30;;;;;;;2.28;2.15;;;;;;;;;;5030930;28;20119;-73
2022/07/01 13:16:56;;;;;;;7.55;2.10;;;;;;;;;;5013112;28;20033;-71
2022/07/01 13:19:22;;;;;;;2.30;2.17;;;;;;;;;;5030792;28;20204;-71
2022/07/01 13:21:48;;;;;;;12.13;2.50;;;;;;;;;;5030821;28;20045;-71
2022/07/01 13:24:14;;;;;;;1.88;1.75;;;;;;;;;;5013171;28;20051;-71
2022/07/01 13:26:40;;;;;;;4.50;2.33;;;;;;;;;;5029471;28;20041;-72
2022/07/01 13:29:06;;;;;;;3.08;2.38;;;;;;;;;;5030770;28;20140;-73
2022/07/01 13:31:32;;;;;;;1.95;1.83;;;;;;;;;;5030508;28;20584;-71
2022/07/01 13:33:58;;;;;;;3.03;2.30;;;;;;;;;;5030807;28;20512;-71
2022/07/01 13:36:24;;;;;;;3.00;2.20;;;;;;;;;;5031724;28;20114;-71
2022/07/01 13:38:50;;;;;;;2.95;2.20;;;;;;;;;;5033119;28;20045;-73
2022/07/01 13:41:16;;;;;;;4.38;2.05;;;;;;;;;;5049102;28;20087;-72
2022/07/01 13:43:42;;;;;;;3.08;2.35;;;;;;;;;;5051414;28;20045;-72
2022/07/01 13:46:08;;;;;;;4.07;1.77;;;;;;;;;;5050333;28;20481;-72
2022/07/01 13:48:35;;;;;;;3.35;2.20;;;;;;;;;;5050020;28;20111;-72
2022/07/01 13:51:01;;;;;;;2.47;2.20;;;;;;;;;;5050334;28;20115;-73
2022/07/01 13:53:27;;;;;;;5.70;2.30;;;;;;;;;;5032686;28;20499;-71
2022/07/01 13:55:53;;;;;;;2.80;2.60;;;;;;;;;;5016122;28;20503;-72
2022/07/01 13:58:19;;;;;;;7.10;1.92;;;;;;;;;;5050166;28;20048;-73
2022/07/01 14:00:45;;;;;;;2.45;2.00;;;;;;;;;;5033900;28;20397;-72
2022/07/01 14:03:11;;;;;;;3.30;2.30;;;;;;;;;;5032989;28;20045;-72
2022/07/01 14:05:37;;;;;;;5.72;2.63;;;;;;;;;;5049034;28;20025;-72
2022/07/01 14:08:03;;;;;;;2.67;2.40;;;;;;;;;;5050284;28;20053;-74
2022/07/01 14:10:30;;;;;;;3.35;2.22;;;;;;;;;;5048665;28;20051;-71
2022/07/01 14:12:56;;;;;;;9.65;2.60;;;;;;;;;;5049807;28;20207;-73
2022/07/01 14:15:21;;;;;;;3.10;2.50;;;;;;;;;;5031753;28;20443;-71
2022/07/01 14:17:47;;;;;;;3.08;2.35;;;;;;;;;;5048492;28;20037;-72
2022/07/01 14:20:14;;;;;;;3.78;2.38;;;;;;;;;;5049651;28;20045;-72
2022/07/01 14:22:39;;;;;;;6.72;2.35;;;;;;;;;;5031748;28;20416;-72
2022/07/01 14:25:05;;;;;;;7.30;2.55;;;;;;;;;;5049645;28;20037;-73
2022/07/01 14:27:32;;;;;;;3.58;2.30;;;;;;;;;;5049345;28;20495;-71
2022/07/01 14:29:58;;;;;;;2.28;2.10;;;;;;;;;;5049766;28;20040;-73
2022/07/01 14:32:27;;;;;;;3.45;2.47;;;;;;;;;;5050042;28;20056;-72
2022/07/01 14:34:53;;;;;;;6.80;2.08;;;;;;;;;;5049482;28;20427;-70
2022/07/01 14:37:19;;;;;;;7.03;2.30;;;;;;;;;;5031311;28;20045;-71
2022/07/01 14:39:45;;;;;;;1.88;1.77;;;;;;;;;;5031865;28;20502;-72
2022/07/01 14:42:12;;;;;;;2.63;2.40;;;;;;;;;;5049412;28;20098;-71
2022/07/01 14:44:38;;;;;;;2.55;2.30;;;;;;;;;;5049158;28;20048;-72
2022/07/01 14:47:04;;;;;;;2.20;2.00;;;;;;;;;;5049250;28;20045;-72
2022/07/01 14:49:30;;;;;;;1.83;1.75;;;;;;;;;;5031417;28;20203;-72
2022/07/01 14:51:56;;;;;;;2.90;1.98;;;;;;;;;;5049287;28;20135;-71
2022/07/01 14:54:22;;;;;;;3.72;2.10;;;;;;;;;;5049111;28;20032;-72
2022/07/01 14:56:48;;;;;;;3.00;2.50;;;;;;;;;;5049053;28;20083;-72
2022/07/01 14:59:14;;;;;;;4.40;2.42;;;;;;;;;;5049199;28;20099;-72
2022/07/01 15:01:40;;;;;;;2.38;2.25;;;;;;;;;;5031129;28;20041;-72
2022/07/01 15:04:06;;;;;;;2.05;1.95;;;;;;;;;;5049066;28;20040;-73
2022/07/01 15:06:32;;;;;;;5.45;2.38;;;;;;;;;;5031134;28;20051;-72
2022/07/01 15:08:58;;;;;;;3.22;2.10;;;;;;;;;;5031125;28;20136;-73
2022/07/01 15:11:24;;;;;;;2.15;2.05;;;;;;;;;;5048887;28;20091;-72
2022/07/01 15:13:50;;;;;;;6.90;2.22;;;;;;;;;;5049191;28;20056;-72
2022/07/01 15:16:17;;;;;;;5.07;2.30;;;;;;;;;;5049498;28;20411;-73
2022/07/01 15:18:43;;;;;;;2.15;1.98;;;;;;;;;;5053122;28;20451;-73
2022/07/01 15:21:09;;;;;;;2.17;2.05;;;;;;;;;;5052836;28;20041;-73
2022/07/01 15:23:35;;;;;;;7.68;2.45;;;;;;;;;;5052843;28;20076;-73
2022/07/01 15:26:02;;;;;;;7.03;2.30;;;;;;;;;;5036395;28;20500;-71
2022/07/01 15:28:28;;;;;;;5.82;2.30;;;;;;;;;;5052568;28;20041;-73
2022/07/01 15:30:54;;;;;;;5.22;2.40;;;;;;;;;;5052803;28;20407;-72
2022/07/01 15:33:20;;;;;;;3.72;2.05;;;;;;;;;;5052391;28;20037;-73
2022/07/01 15:35:46;;;;;;;4.28;2.47;;;;;;;;;;5052802;28;20577;-73